createdAt,value
2018-08-21T00:00:12.908Z,1013.66
2018-08-21T00:00:56.283Z,1013.63
2018-08-21T00:01:37.091Z,1013.67
2018-08-21T00:02:17.951Z,1013.64
2018-08-21T00:02:58.695Z,1013.64
2018-08-21T00:03:39.450Z,1013.65
2018-08-21T00:04:21.785Z,1013.62
2018-08-21T00:05:02.624Z,1013.62
2018-08-21T00:05:43.350Z,1013.61
2018-08-21T00:06:24.085Z,1013.61
2018-08-21T00:07:04.879Z,1013.57
2018-08-21T00:07:45.748Z,1013.58
2018-08-21T00:08:26.552Z,1013.61
2018-08-21T00:09:07.339Z,1013.6
2018-08-21T00:09:48.168Z,1013.58
2018-08-21T00:10:28.957Z,1013.56
2018-08-21T00:11:09.692Z,1013.58
2018-08-21T00:11:50.554Z,1013.55
2018-08-21T00:12:31.319Z,1013.55
2018-08-21T00:13:12.190Z,1013.54
2018-08-21T00:13:52.930Z,1013.55
2018-08-21T00:14:33.709Z,1013.55
2018-08-21T00:15:14.518Z,1013.54
2018-08-21T00:15:55.300Z,1013.55
2018-08-21T00:16:36.052Z,1013.54
2018-08-21T00:17:16.830Z,1013.55
2018-08-21T00:17:57.658Z,1013.54
2018-08-21T00:18:38.512Z,1013.53
2018-08-21T00:19:19.234Z,1013.54
2018-08-21T00:20:00.041Z,1013.5
2018-08-21T00:20:40.819Z,1013.55
2018-08-21T00:21:21.643Z,1013.52
2018-08-21T00:22:03.911Z,1013.54
2018-08-21T00:22:44.653Z,1013.47
2018-08-21T00:23:25.465Z,1013.49
2018-08-21T00:24:06.298Z,1013.46
2018-08-21T00:24:47.043Z,1013.47
2018-08-21T00:25:27.783Z,1013.44
2018-08-21T00:26:08.543Z,1013.43
2018-08-21T00:26:49.352Z,1013.44
2018-08-21T00:27:30.188Z,1013.45
2018-08-21T00:28:10.983Z,1013.42
2018-08-21T00:28:51.740Z,1013.4
2018-08-21T00:29:32.477Z,1013.38
2018-08-21T00:30:13.218Z,1013.41
2018-08-21T00:30:54.059Z,1013.36
2018-08-21T00:31:34.876Z,1013.39
2018-08-21T00:32:15.603Z,1013.34
2018-08-21T00:32:56.397Z,1013.36
2018-08-21T00:33:37.179Z,1013.35
2018-08-21T00:34:18.041Z,1013.36
2018-08-21T00:34:58.869Z,1013.35
2018-08-21T00:35:39.575Z,1013.34
2018-08-21T00:36:20.408Z,1013.29
2018-08-21T00:37:01.236Z,1013.34
2018-08-21T00:37:41.966Z,1013.3
2018-08-21T00:38:22.743Z,1013.3
2018-08-21T00:39:03.499Z,1013.3
2018-08-21T00:39:44.320Z,1013.33
2018-08-21T00:40:25.149Z,1013.3
2018-08-21T00:41:05.869Z,1013.3
2018-08-21T00:41:46.700Z,1013.32
2018-08-21T00:42:27.521Z,1013.35
2018-08-21T00:43:08.334Z,1013.29
2018-08-21T00:43:49.160Z,1013.27
2018-08-21T00:44:29.868Z,1013.3
2018-08-21T00:45:10.594Z,1013.31
2018-08-21T00:45:51.320Z,1013.28
2018-08-21T00:46:32.145Z,1013.3
2018-08-21T00:47:13.079Z,1013.28
2018-08-21T00:47:53.880Z,1013.28
2018-08-21T00:48:34.665Z,1013.29
2018-08-21T00:49:15.451Z,1013.22
2018-08-21T00:49:56.241Z,1013.22
2018-08-21T00:50:36.972Z,1013.22
2018-08-21T00:51:19.253Z,1013.25
2018-08-21T00:52:00.020Z,1013.2
2018-08-21T00:52:42.355Z,1013.21
2018-08-21T00:53:23.182Z,1013.21
2018-08-21T00:54:03.993Z,1013.21
2018-08-21T00:54:44.787Z,1013.17
2018-08-21T00:55:25.522Z,1013.21
2018-08-21T00:56:08.765Z,1013.18
2018-08-21T00:56:49.473Z,1013.19
2018-08-21T00:57:30.370Z,1013.15
2018-08-21T00:58:11.109Z,1013.15
2018-08-21T00:58:51.843Z,1013.15
2018-08-21T00:59:32.648Z,1013.15
2018-08-21T01:00:13.488Z,1013.15
2018-08-21T01:00:54.332Z,1013.17
2018-08-21T01:01:35.047Z,1013.21
2018-08-21T01:02:15.808Z,1013.21
2018-08-21T01:02:56.564Z,1013.15
2018-08-21T01:03:37.375Z,1013.16
2018-08-21T01:04:18.129Z,1013.18
2018-08-21T01:04:58.973Z,1013.15
2018-08-21T01:05:39.756Z,1013.15
2018-08-21T01:06:20.507Z,1013.15
2018-08-21T01:07:01.311Z,1013.12
2018-08-21T01:07:42.131Z,1013.15
2018-08-21T01:08:22.857Z,1013.09
2018-08-21T01:09:03.605Z,1013.15
2018-08-21T01:09:44.352Z,1013.14
2018-08-21T01:10:25.196Z,1013.15
2018-08-21T01:11:05.972Z,1013.11
2018-08-21T01:11:46.728Z,1013.17
2018-08-21T01:12:27.552Z,1013.12
2018-08-21T01:13:08.349Z,1013.13
2018-08-21T01:13:49.169Z,1013.11
2018-08-21T01:14:29.923Z,1013.12
2018-08-21T01:15:10.727Z,1013.1
2018-08-21T01:15:51.574Z,1013.13
2018-08-21T01:16:32.362Z,1013.08
2018-08-21T01:17:13.083Z,1013.11
2018-08-21T01:17:53.804Z,1013.1
2018-08-21T01:18:34.547Z,1013.08
2018-08-21T01:19:15.387Z,1013.08
2018-08-21T01:19:56.264Z,1013.1
2018-08-21T01:20:37.075Z,1013.08
2018-08-21T01:21:17.798Z,1013.07
2018-08-21T01:21:58.523Z,1013.05
2018-08-21T01:22:39.265Z,1013.09
2018-08-21T01:23:20.042Z,1013.06
2018-08-21T01:24:00.816Z,1013.04
2018-08-21T01:24:41.525Z,1013.05
2018-08-21T01:25:22.397Z,1013.03
2018-08-21T01:26:03.241Z,1013.03
2018-08-21T01:26:44.044Z,1013.04
2018-08-21T01:27:24.834Z,1013.05
2018-08-21T01:28:07.330Z,1013.06
2018-08-21T01:28:48.105Z,1013.04
2018-08-21T01:29:28.838Z,1013.05
2018-08-21T01:30:09.717Z,1013.07
2018-08-21T01:30:50.533Z,1013.08
2018-08-21T01:31:31.386Z,1013.07
2018-08-21T01:32:12.166Z,1013.07
2018-08-21T01:32:52.917Z,1013.11
2018-08-21T01:33:33.776Z,1013.13
2018-08-21T01:34:17.159Z,1013.07
2018-08-21T01:34:57.920Z,1013.08
2018-08-21T01:35:38.646Z,1013.09
2018-08-21T01:36:19.401Z,1013.09
2018-08-21T01:37:00.195Z,1013.07
2018-08-21T01:37:41.004Z,1013.03
2018-08-21T01:38:21.808Z,1013.02
2018-08-21T01:39:02.555Z,1013.07
2018-08-21T01:39:43.384Z,1013.06
2018-08-21T01:40:24.122Z,1013.02
2018-08-21T01:41:04.966Z,1013.06
2018-08-21T01:41:45.800Z,1013.04
2018-08-21T01:42:26.519Z,1013.03
2018-08-21T01:43:07.342Z,1013.05
2018-08-21T01:43:48.210Z,1013.03
2018-08-21T01:44:30.583Z,1013.05
2018-08-21T01:45:11.374Z,1013.06
2018-08-21T01:45:52.128Z,1013.03
2018-08-21T01:46:35.893Z,1013.04
2018-08-21T01:47:16.634Z,1013.05
2018-08-21T01:47:57.389Z,1013.06
2018-08-21T01:48:39.828Z,1013.01
2018-08-21T01:49:20.590Z,1013.05
2018-08-21T01:50:01.410Z,1013.02
2018-08-21T01:50:42.155Z,1013.03
2018-08-21T01:51:22.909Z,1013.01
2018-08-21T01:52:03.701Z,1013
2018-08-21T01:52:44.535Z,1013.03
2018-08-21T01:53:25.380Z,1013.01
2018-08-21T01:54:06.117Z,1013
2018-08-21T01:54:46.851Z,1012.98
2018-08-21T01:55:27.595Z,1012.96
2018-08-21T01:56:08.383Z,1013
2018-08-21T01:56:49.221Z,1012.99
2018-08-21T01:57:30.068Z,1012.97
2018-08-21T01:58:10.798Z,1012.92
2018-08-21T01:58:51.580Z,1012.97
2018-08-21T01:59:32.410Z,1012.95
2018-08-21T02:00:13.230Z,1012.96
2018-08-21T02:00:54.023Z,1012.96
2018-08-21T02:01:34.751Z,1012.95
2018-08-21T02:02:15.495Z,1012.96
2018-08-21T02:02:56.330Z,1012.96
2018-08-21T02:03:37.105Z,1012.95
2018-08-21T02:04:17.908Z,1012.93
2018-08-21T02:04:58.633Z,1012.91
2018-08-21T02:05:39.358Z,1012.9
2018-08-21T02:06:20.071Z,1012.97
2018-08-21T02:07:00.851Z,1012.94
2018-08-21T02:07:41.658Z,1012.97
2018-08-21T02:08:22.388Z,1012.99
2018-08-21T02:09:03.167Z,1012.98
2018-08-21T02:09:44.013Z,1012.97
2018-08-21T02:10:24.858Z,1012.98
2018-08-21T02:11:05.770Z,1013
2018-08-21T02:11:46.527Z,1012.99
2018-08-21T02:12:27.296Z,1013
2018-08-21T02:13:07.982Z,1012.99
2018-08-21T02:13:48.796Z,1013.03
2018-08-21T02:14:29.631Z,1013.03
2018-08-21T02:15:10.454Z,1013.01
2018-08-21T02:15:51.224Z,1013
2018-08-21T02:16:31.997Z,1012.99
2018-08-21T02:17:12.862Z,1012.98
2018-08-21T02:17:53.576Z,1012.97
2018-08-21T02:18:34.300Z,1012.99
2018-08-21T02:19:15.073Z,1012.99
2018-08-21T02:19:55.821Z,1012.98
2018-08-21T02:20:36.653Z,1012.96
2018-08-21T02:21:17.439Z,1012.99
2018-08-21T02:21:58.207Z,1013.02
2018-08-21T02:22:39.044Z,1012.98
2018-08-21T02:23:19.851Z,1012.98
2018-08-21T02:24:00.734Z,1012.98
2018-08-21T02:24:41.478Z,1012.99
2018-08-21T02:25:22.263Z,1012.99
2018-08-21T02:26:03.143Z,1012.98
2018-08-21T02:26:43.850Z,1012.97
2018-08-21T02:27:24.577Z,1013
2018-08-21T02:28:05.311Z,1013
2018-08-21T02:28:46.039Z,1013.04
2018-08-21T02:29:26.937Z,1013.02
2018-08-21T02:30:07.757Z,1013.03
2018-08-21T02:30:48.512Z,1013.07
2018-08-21T02:31:29.226Z,1013.04
2018-08-21T02:32:09.968Z,1013.03
2018-08-21T02:32:50.684Z,1012.99
2018-08-21T02:33:31.520Z,1013
2018-08-21T02:34:12.246Z,1013.02
2018-08-21T02:34:52.967Z,1013.02
2018-08-21T02:35:33.825Z,1013
2018-08-21T02:36:14.619Z,1013.01
2018-08-21T02:36:55.467Z,1012.99
2018-08-21T02:37:36.204Z,1013.02
2018-08-21T02:38:16.994Z,1013.05
2018-08-21T02:38:57.801Z,1013.04
2018-08-21T02:39:38.545Z,1013.02
2018-08-21T02:40:19.279Z,1013.04
2018-08-21T02:41:01.841Z,1013.03
2018-08-21T02:41:42.647Z,1013.01
2018-08-21T02:42:23.448Z,1013.02
2018-08-21T02:43:04.210Z,1013.02
2018-08-21T02:43:44.993Z,1012.99
2018-08-21T02:44:25.807Z,1013.02
2018-08-21T02:45:06.619Z,1013.01
2018-08-21T02:45:47.457Z,1013.03
2018-08-21T02:46:28.203Z,1013
2018-08-21T02:47:09.008Z,1012.99
2018-08-21T02:47:49.739Z,1012.98
2018-08-21T02:48:30.518Z,1013.01
2018-08-21T02:49:11.341Z,1012.98
2018-08-21T02:49:52.163Z,1012.99
2018-08-21T02:50:32.936Z,1013.01
2018-08-21T02:51:13.667Z,1012.99
2018-08-21T02:51:54.521Z,1012.97
2018-08-21T02:52:35.321Z,1013.02
2018-08-21T02:53:16.099Z,1013
2018-08-21T02:53:56.828Z,1013.01
2018-08-21T02:54:37.574Z,1013.03
2018-08-21T02:55:18.392Z,1013.02
2018-08-21T02:55:59.164Z,1013.04
2018-08-21T02:56:39.889Z,1013.02
2018-08-21T02:57:20.730Z,1013.04
2018-08-21T02:58:01.629Z,1013.02
2018-08-21T02:58:42.409Z,1013.04
2018-08-21T02:59:23.171Z,1013.01
2018-08-21T03:00:03.954Z,1013
2018-08-21T03:00:44.741Z,1013.01
2018-08-21T03:01:25.538Z,1013.02
2018-08-21T03:02:06.286Z,1013.01
2018-08-21T03:02:47.022Z,1013.02
2018-08-21T03:03:27.746Z,1013
2018-08-21T03:04:08.649Z,1013.02
2018-08-21T03:04:49.530Z,1012.99
2018-08-21T03:05:30.334Z,1013
2018-08-21T03:06:11.068Z,1013.04
2018-08-21T03:06:51.771Z,1013.04
2018-08-21T03:07:32.514Z,1013.06
2018-08-21T03:08:13.311Z,1013.04
2018-08-21T03:08:54.116Z,1013.06
2018-08-21T03:09:34.896Z,1013.03
2018-08-21T03:10:15.722Z,1013.07
2018-08-21T03:10:56.547Z,1013.03
2018-08-21T03:11:37.342Z,1013.06
2018-08-21T03:12:18.137Z,1013.06
2018-08-21T03:12:58.870Z,1013.04
2018-08-21T03:13:39.623Z,1013.05
2018-08-21T03:14:20.355Z,1013.04
2018-08-21T03:15:01.194Z,1013.04
2018-08-21T03:15:41.985Z,1013.05
2018-08-21T03:16:22.856Z,1013.02
2018-08-21T03:17:03.657Z,1013.05
2018-08-21T03:17:44.424Z,1013.04
2018-08-21T03:18:25.279Z,1013.05
2018-08-21T03:19:06.032Z,1013.01
2018-08-21T03:19:46.768Z,1013.04
2018-08-21T03:20:27.485Z,1013.04
2018-08-21T03:21:08.268Z,1013.06
2018-08-21T03:21:49.183Z,1013
2018-08-21T03:22:29.920Z,1013
2018-08-21T03:23:10.781Z,1013.05
2018-08-21T03:23:51.530Z,1013.01
2018-08-21T03:24:32.224Z,1013.03
2018-08-21T03:25:12.986Z,1013.02
2018-08-21T03:25:55.642Z,1013
2018-08-21T03:26:36.390Z,1013.01
2018-08-21T03:27:17.202Z,1013
2018-08-21T03:27:58.005Z,1012.99
2018-08-21T03:28:38.810Z,1012.99
2018-08-21T03:29:19.661Z,1012.98
2018-08-21T03:30:00.406Z,1012.98
2018-08-21T03:30:41.191Z,1013.02
2018-08-21T03:31:22.017Z,1012.96
2018-08-21T03:32:02.802Z,1012.95
2018-08-21T03:32:43.538Z,1012.93
2018-08-21T03:33:24.276Z,1012.96
2018-08-21T03:34:05.038Z,1012.95
2018-08-21T03:34:45.910Z,1012.94
2018-08-21T03:35:26.621Z,1012.93
2018-08-21T03:36:07.403Z,1012.96
2018-08-21T03:36:48.201Z,1012.96
2018-08-21T03:37:28.969Z,1012.94
2018-08-21T03:38:09.807Z,1012.96
2018-08-21T03:38:52.405Z,1012.94
2018-08-21T03:39:33.110Z,1012.99
2018-08-21T03:40:13.857Z,1012.97
2018-08-21T03:40:54.690Z,1012.96
2018-08-21T03:41:35.578Z,1012.97
2018-08-21T03:42:16.412Z,1012.99
2018-08-21T03:42:57.130Z,1012.94
2018-08-21T03:43:37.906Z,1012.98
2018-08-21T03:44:18.700Z,1012.96
2018-08-21T03:44:59.528Z,1012.94
2018-08-21T03:45:40.263Z,1012.95
2018-08-21T03:46:21.006Z,1012.94
2018-08-21T03:47:01.789Z,1012.97
2018-08-21T03:47:42.625Z,1012.97
2018-08-21T03:48:23.475Z,1013
2018-08-21T03:49:04.267Z,1013.01
2018-08-21T03:49:44.975Z,1013.01
2018-08-21T03:50:25.683Z,1013.02
2018-08-21T03:51:06.398Z,1013
2018-08-21T03:51:47.231Z,1013
2018-08-21T03:52:28.049Z,1013
2018-08-21T03:53:08.793Z,1012.99
2018-08-21T03:53:49.601Z,1013
2018-08-21T03:54:30.442Z,1013
2018-08-21T03:55:11.279Z,1013.02
2018-08-21T03:55:52.006Z,1013
2018-08-21T03:56:32.755Z,1013
2018-08-21T03:57:13.448Z,1013.01
2018-08-21T03:57:54.285Z,1013.02
2018-08-21T03:58:35.080Z,1013.01
2018-08-21T03:59:15.939Z,1013.02
2018-08-21T03:59:56.763Z,1013.03
2018-08-21T04:00:37.504Z,1013.05
2018-08-21T04:01:18.301Z,1013.03
2018-08-21T04:01:59.106Z,1013.03
2018-08-21T04:02:39.854Z,1013.03
2018-08-21T04:03:20.573Z,1013.03
2018-08-21T04:04:01.331Z,1013.02
2018-08-21T04:04:42.182Z,1013.04
2018-08-21T04:05:22.961Z,1013.01
2018-08-21T04:06:05.280Z,1012.99
2018-08-21T04:06:46.099Z,1012.99
2018-08-21T04:07:26.911Z,1012.98
2018-08-21T04:08:07.728Z,1012.97
2018-08-21T04:08:48.538Z,1012.95
2018-08-21T04:09:29.290Z,1012.98
2018-08-21T04:10:10.131Z,1012.97
2018-08-21T04:10:50.853Z,1012.98
2018-08-21T04:11:31.614Z,1013.03
2018-08-21T04:12:12.321Z,1012.98
2018-08-21T04:12:53.097Z,1012.99
2018-08-21T04:13:33.984Z,1013.01
2018-08-21T04:14:14.841Z,1013
2018-08-21T04:14:55.615Z,1013.04
2018-08-21T04:15:36.379Z,1013.06
2018-08-21T04:16:17.115Z,1013.03
2018-08-21T04:16:57.866Z,1013.04
2018-08-21T04:17:38.648Z,1013.05
2018-08-21T04:18:19.447Z,1013.05
2018-08-21T04:19:00.164Z,1013.04
2018-08-21T04:19:40.959Z,1013.05
2018-08-21T04:20:23.649Z,1013.07
2018-08-21T04:21:04.551Z,1013.11
2018-08-21T04:21:45.345Z,1013.09
2018-08-21T04:22:26.065Z,1013.1
2018-08-21T04:23:06.846Z,1013.11
2018-08-21T04:23:47.601Z,1013.11
2018-08-21T04:24:28.505Z,1013.1
2018-08-21T04:25:09.299Z,1013.13
2018-08-21T04:25:50.138Z,1013.11
2018-08-21T04:26:30.894Z,1013.13
2018-08-21T04:27:11.682Z,1013.08
2018-08-21T04:27:52.555Z,1013.1
2018-08-21T04:28:33.336Z,1013.11
2018-08-21T04:29:14.071Z,1013.11
2018-08-21T04:29:54.817Z,1013.12
2018-08-21T04:30:35.655Z,1013.08
2018-08-21T04:31:16.466Z,1013.1
2018-08-21T04:31:57.297Z,1013.08
2018-08-21T04:32:38.180Z,1013.09
2018-08-21T04:33:18.872Z,1013.1
2018-08-21T04:33:59.582Z,1013.11
2018-08-21T04:34:40.311Z,1013.1
2018-08-21T04:35:21.183Z,1013.1
2018-08-21T04:36:01.939Z,1013.11
2018-08-21T04:36:42.704Z,1013.1
2018-08-21T04:37:23.535Z,1013.14
2018-08-21T04:38:04.437Z,1013.12
2018-08-21T04:38:45.169Z,1013.15
2018-08-21T04:39:25.949Z,1013.13
2018-08-21T04:40:06.694Z,1013.15
2018-08-21T04:40:47.600Z,1013.18
2018-08-21T04:41:28.361Z,1013.16
2018-08-21T04:42:11.666Z,1013.17
2018-08-21T04:42:52.422Z,1013.17
2018-08-21T04:43:33.245Z,1013.19
2018-08-21T04:44:14.065Z,1013.2
2018-08-21T04:44:54.861Z,1013.17
2018-08-21T04:45:35.622Z,1013.17
2018-08-21T04:46:16.452Z,1013.18
2018-08-21T04:46:57.333Z,1013.14
2018-08-21T04:47:38.099Z,1013.16
2018-08-21T04:48:18.874Z,1013.21
2018-08-21T04:48:59.644Z,1013.2
2018-08-21T04:49:40.410Z,1013.21
2018-08-21T04:50:21.197Z,1013.22
2018-08-21T04:51:02.059Z,1013.19
2018-08-21T04:51:42.906Z,1013.22
2018-08-21T04:52:23.655Z,1013.21
2018-08-21T04:53:04.415Z,1013.18
2018-08-21T04:53:45.264Z,1013.2
2018-08-21T04:54:26.109Z,1013.21
2018-08-21T04:55:06.858Z,1013.23
2018-08-21T04:55:49.174Z,1013.23
2018-08-21T04:56:29.901Z,1013.22
2018-08-21T04:57:10.784Z,1013.2
2018-08-21T04:57:51.625Z,1013.18
2018-08-21T04:58:32.414Z,1013.18
2018-08-21T04:59:13.238Z,1013.21
2018-08-21T04:59:53.955Z,1013.26
2018-08-21T05:00:34.799Z,1013.27
2018-08-21T05:01:15.590Z,1013.23
2018-08-21T05:01:56.380Z,1013.26
2018-08-21T05:02:37.246Z,1013.25
2018-08-21T05:03:17.998Z,1013.27
2018-08-21T05:03:58.729Z,1013.26
2018-08-21T05:04:39.446Z,1013.29
2018-08-21T05:05:20.245Z,1013.29
2018-08-21T05:06:01.128Z,1013.31
2018-08-21T05:06:42.019Z,1013.27
2018-08-21T05:07:22.841Z,1013.3
2018-08-21T05:08:03.593Z,1013.28
2018-08-21T05:08:44.348Z,1013.29
2018-08-21T05:09:25.100Z,1013.27
2018-08-21T05:10:05.874Z,1013.34
2018-08-21T05:10:46.616Z,1013.29
2018-08-21T05:11:29.314Z,1013.28
2018-08-21T05:12:10.091Z,1013.3
2018-08-21T05:12:50.890Z,1013.32
2018-08-21T05:13:31.686Z,1013.33
2018-08-21T05:14:14.302Z,1013.33
2018-08-21T05:14:55.068Z,1013.34
2018-08-21T05:15:35.978Z,1013.36
2018-08-21T05:16:16.754Z,1013.4
2018-08-21T05:17:00.159Z,1013.42
2018-08-21T05:17:40.887Z,1013.43
2018-08-21T05:18:21.649Z,1013.43
2018-08-21T05:19:02.523Z,1013.43
2018-08-21T05:19:43.305Z,1013.47
2018-08-21T05:20:24.059Z,1013.46
2018-08-21T05:21:04.932Z,1013.51
2018-08-21T05:21:45.742Z,1013.5
2018-08-21T05:22:26.609Z,1013.49
2018-08-21T05:23:07.331Z,1013.5
2018-08-21T05:23:48.097Z,1013.54
2018-08-21T05:24:28.956Z,1013.5
2018-08-21T05:25:09.705Z,1013.52
2018-08-21T05:25:50.539Z,1013.53
2018-08-21T05:26:31.455Z,1013.53
2018-08-21T05:27:12.298Z,1013.49
2018-08-21T05:27:53.017Z,1013.49
2018-08-21T05:28:33.956Z,1013.51
2018-08-21T05:29:14.681Z,1013.54
2018-08-21T05:29:55.411Z,1013.57
2018-08-21T05:30:36.157Z,1013.57
2018-08-21T05:31:16.911Z,1013.57
2018-08-21T05:31:57.783Z,1013.59
2018-08-21T05:32:38.615Z,1013.58
2018-08-21T05:33:19.475Z,1013.64
2018-08-21T05:34:00.213Z,1013.61
2018-08-21T05:34:40.953Z,1013.67
2018-08-21T05:35:21.698Z,1013.65
2018-08-21T05:36:02.449Z,1013.67
2018-08-21T05:36:43.327Z,1013.65
2018-08-21T05:37:24.148Z,1013.69
2018-08-21T05:38:04.895Z,1013.69
2018-08-21T05:38:45.767Z,1013.67
2018-08-21T05:39:26.632Z,1013.7
2018-08-21T05:40:07.502Z,1013.72
2018-08-21T05:40:48.216Z,1013.72
2018-08-21T05:41:29.003Z,1013.75
2018-08-21T05:42:11.516Z,1013.75
2018-08-21T05:42:54.254Z,1013.72
2018-08-21T05:43:35.074Z,1013.75
2018-08-21T05:44:15.903Z,1013.72
2018-08-21T05:44:56.667Z,1013.75
2018-08-21T05:45:37.415Z,1013.8
2018-08-21T05:46:20.083Z,1013.77
2018-08-21T05:47:00.869Z,1013.77
2018-08-21T05:47:41.616Z,1013.74
2018-08-21T05:48:22.340Z,1013.76
2018-08-21T05:49:05.017Z,1013.78
2018-08-21T05:49:45.849Z,1013.75
2018-08-21T05:50:26.620Z,1013.74
2018-08-21T05:51:07.343Z,1013.77
2018-08-21T05:51:48.196Z,1013.77
2018-08-21T05:52:28.979Z,1013.77
2018-08-21T05:53:09.762Z,1013.83
2018-08-21T05:53:50.469Z,1013.85
2018-08-21T05:54:31.258Z,1013.81
2018-08-21T05:55:12.241Z,1013.86
2018-08-21T05:55:52.919Z,1013.86
2018-08-21T05:56:33.650Z,1013.84
2018-08-21T05:57:14.406Z,1013.88
2018-08-21T05:57:55.200Z,1013.9
2018-08-21T05:58:35.999Z,1013.82
2018-08-21T05:59:16.855Z,1013.87
2018-08-21T05:59:57.660Z,1013.88
2018-08-21T06:00:38.398Z,1013.87
2018-08-21T06:01:19.158Z,1013.85
2018-08-21T06:01:59.932Z,1013.87
2018-08-21T06:02:40.752Z,1013.9
2018-08-21T06:03:21.598Z,1013.87
2018-08-21T06:04:02.318Z,1013.89
2018-08-21T06:04:43.157Z,1013.89
2018-08-21T06:05:23.920Z,1013.9
2018-08-21T06:06:04.744Z,1013.89
2018-08-21T06:06:45.505Z,1013.91
2018-08-21T06:07:26.292Z,1013.93
2018-08-21T06:08:07.116Z,1013.93
2018-08-21T06:08:47.868Z,1013.94
2018-08-21T06:09:28.621Z,1013.97
2018-08-21T06:10:09.470Z,1013.95
2018-08-21T06:10:50.275Z,1013.97
2018-08-21T06:11:31.179Z,1013.95
2018-08-21T06:12:12.054Z,1013.95
2018-08-21T06:12:52.865Z,1013.95
2018-08-21T06:13:33.593Z,1013.93
2018-08-21T06:14:14.337Z,1013.96
2018-08-21T06:14:55.096Z,1013.97
2018-08-21T06:15:35.940Z,1013.95
2018-08-21T06:16:16.782Z,1013.95
2018-08-21T06:16:57.597Z,1013.97
2018-08-21T06:17:38.364Z,1014
2018-08-21T06:18:19.193Z,1013.92
2018-08-21T06:18:59.905Z,1013.95
2018-08-21T06:19:40.716Z,1013.99
2018-08-21T06:20:21.456Z,1014
2018-08-21T06:21:02.238Z,1013.96
2018-08-21T06:21:42.990Z,1013.98
2018-08-21T06:22:23.791Z,1013.93
2018-08-21T06:23:04.767Z,1013.97
2018-08-21T06:23:45.557Z,1013.98
2018-08-21T06:24:26.314Z,1013.96
2018-08-21T06:25:07.169Z,1014.01
2018-08-21T06:25:47.900Z,1013.98
2018-08-21T06:26:28.613Z,1014
2018-08-21T06:27:09.439Z,1014.01
2018-08-21T06:27:50.115Z,1014.06
2018-08-21T06:28:30.923Z,1014.07
2018-08-21T06:29:11.715Z,1014.08
2018-08-21T06:29:52.517Z,1014.07
2018-08-21T06:30:33.303Z,1014.09
2018-08-21T06:31:14.068Z,1014.1
2018-08-21T06:31:54.926Z,1014.12
2018-08-21T06:32:35.661Z,1014.11
2018-08-21T06:33:16.417Z,1014.16
2018-08-21T06:33:57.255Z,1014.13
2018-08-21T06:34:37.989Z,1014.17
2018-08-21T06:35:18.834Z,1014.16
2018-08-21T06:35:59.715Z,1014.19
2018-08-21T06:36:40.541Z,1014.21
2018-08-21T06:37:21.285Z,1014.21
2018-08-21T06:38:02.067Z,1014.2
2018-08-21T06:38:42.861Z,1014.21
2018-08-21T06:39:23.657Z,1014.21
2018-08-21T06:40:04.426Z,1014.22
2018-08-21T06:40:45.164Z,1014.21
2018-08-21T06:41:25.950Z,1014.24
2018-08-21T06:42:06.773Z,1014.26
2018-08-21T06:42:47.598Z,1014.28
2018-08-21T06:43:28.357Z,1014.25
2018-08-21T06:44:09.062Z,1014.25
2018-08-21T06:44:49.794Z,1014.28
2018-08-21T06:45:30.556Z,1014.27
2018-08-21T06:46:11.380Z,1014.28
2018-08-21T06:46:52.194Z,1014.29
2018-08-21T06:47:32.963Z,1014.24
2018-08-21T06:48:13.803Z,1014.27
2018-08-21T06:48:54.652Z,1014.24
2018-08-21T06:49:35.463Z,1014.28
2018-08-21T06:50:18.264Z,1014.26
2018-08-21T06:50:58.984Z,1014.29
2018-08-21T06:51:39.725Z,1014.29
2018-08-21T06:52:20.549Z,1014.35
2018-08-21T06:53:01.368Z,1014.38
2018-08-21T06:53:42.114Z,1014.34
2018-08-21T06:54:24.708Z,1014.38
2018-08-21T06:55:05.461Z,1014.39
2018-08-21T06:55:46.272Z,1014.36
2018-08-21T06:56:27.101Z,1014.39
2018-08-21T06:57:07.886Z,1014.39
2018-08-21T06:57:48.630Z,1014.4
2018-08-21T06:58:29.397Z,1014.36
2018-08-21T06:59:10.211Z,1014.39
2018-08-21T06:59:50.956Z,1014.39
2018-08-21T07:00:31.688Z,1014.39
2018-08-21T07:01:12.499Z,1014.36
2018-08-21T07:01:53.280Z,1014.37
2018-08-21T07:02:34.119Z,1014.35
2018-08-21T07:03:14.869Z,1014.37
2018-08-21T07:03:55.638Z,1014.35
2018-08-21T07:04:36.475Z,1014.32
2018-08-21T07:05:17.266Z,1014.34
2018-08-21T07:05:58.014Z,1014.39
2018-08-21T07:06:38.733Z,1014.35
2018-08-21T07:07:19.478Z,1014.38
2018-08-21T07:08:00.300Z,1014.35
2018-08-21T07:08:41.129Z,1014.35
2018-08-21T07:09:22.002Z,1014.38
2018-08-21T07:10:02.772Z,1014.37
2018-08-21T07:10:43.547Z,1014.36
2018-08-21T07:11:24.312Z,1014.39
2018-08-21T07:12:05.092Z,1014.4
2018-08-21T07:12:45.903Z,1014.4
2018-08-21T07:13:26.634Z,1014.4
2018-08-21T07:14:07.458Z,1014.4
2018-08-21T07:14:48.267Z,1014.4
2018-08-21T07:15:29.084Z,1014.39
2018-08-21T07:16:09.893Z,1014.39
2018-08-21T07:16:50.618Z,1014.37
2018-08-21T07:17:31.433Z,1014.36
2018-08-21T07:18:12.259Z,1014.36
2018-08-21T07:18:53.041Z,1014.36
2018-08-21T07:19:33.792Z,1014.37
2018-08-21T07:20:14.516Z,1014.39
2018-08-21T07:20:55.367Z,1014.38
2018-08-21T07:21:36.174Z,1014.37
2018-08-21T07:22:16.957Z,1014.37
2018-08-21T07:22:57.720Z,1014.4
2018-08-21T07:23:38.556Z,1014.4
2018-08-21T07:24:19.405Z,1014.42
2018-08-21T07:25:00.172Z,1014.41
2018-08-21T07:25:40.912Z,1014.41
2018-08-21T07:26:21.629Z,1014.34
2018-08-21T07:27:02.435Z,1014.38
2018-08-21T07:27:43.242Z,1014.32
2018-08-21T07:28:24.088Z,1014.34
2018-08-21T07:29:04.938Z,1014.3
2018-08-21T07:29:45.641Z,1014.33
2018-08-21T07:30:26.415Z,1014.33
2018-08-21T07:31:07.559Z,1014.31
2018-08-21T07:31:50.025Z,1014.28
2018-08-21T07:32:30.736Z,1014.31
2018-08-21T07:33:11.506Z,1014.26
2018-08-21T07:33:52.287Z,1014.24
2018-08-21T07:34:33.091Z,1014.28
2018-08-21T07:35:13.842Z,1014.26
2018-08-21T07:35:54.586Z,1014.22
2018-08-21T07:36:35.388Z,1014.25
2018-08-21T07:37:16.260Z,1014.27
2018-08-21T07:37:57.091Z,1014.26
2018-08-21T07:38:37.881Z,1014.27
2018-08-21T07:39:18.731Z,1014.26
2018-08-21T07:39:59.548Z,1014.29
2018-08-21T07:40:40.296Z,1014.24
2018-08-21T07:41:21.054Z,1014.25
2018-08-21T07:42:01.808Z,1014.24
2018-08-21T07:42:42.642Z,1014.23
2018-08-21T07:43:23.459Z,1014.26
2018-08-21T07:44:04.355Z,1014.28
2018-08-21T07:44:47.089Z,1014.22
2018-08-21T07:45:27.898Z,1014.23
2018-08-21T07:46:08.696Z,1014.24
2018-08-21T07:46:49.479Z,1014.21
2018-08-21T07:47:30.370Z,1014.23
2018-08-21T07:48:11.248Z,1014.23
2018-08-21T07:48:53.697Z,1014.19
2018-08-21T07:49:34.556Z,1014.24
2018-08-21T07:50:15.367Z,1014.2
2018-08-21T07:50:56.204Z,1014.21
2018-08-21T07:51:36.936Z,1014.2
2018-08-21T07:52:17.661Z,1014.23
2018-08-21T07:52:58.511Z,1014.21
2018-08-21T07:53:39.329Z,1014.16
2018-08-21T07:54:20.105Z,1014.19
2018-08-21T07:55:03.818Z,1014.19
2018-08-21T07:55:44.613Z,1014.17
2018-08-21T07:56:25.377Z,1014.2
2018-08-21T07:57:06.174Z,1014.2
2018-08-21T07:57:46.964Z,1014.19
2018-08-21T07:58:27.699Z,1014.19
2018-08-21T07:59:08.420Z,1014.23
2018-08-21T07:59:49.185Z,1014.23
2018-08-21T08:00:30.061Z,1014.22
2018-08-21T08:01:12.638Z,1014.21
2018-08-21T08:01:53.428Z,1014.2
2018-08-21T08:02:34.158Z,1014.21
2018-08-21T08:03:14.931Z,1014.21
2018-08-21T08:03:55.706Z,1014.17
2018-08-21T08:04:36.512Z,1014.18
2018-08-21T08:05:17.303Z,1014.17
2018-08-21T08:05:59.939Z,1014.19
2018-08-21T08:06:40.798Z,1014.15
2018-08-21T08:07:21.622Z,1014.18
2018-08-21T08:08:02.442Z,1014.16
2018-08-21T08:08:43.260Z,1014.22
2018-08-21T08:09:23.970Z,1014.2
2018-08-21T08:10:04.806Z,1014.2
2018-08-21T08:10:45.606Z,1014.17
2018-08-21T08:11:26.316Z,1014.18
2018-08-21T08:12:07.053Z,1014.16
2018-08-21T08:12:47.760Z,1014.14
2018-08-21T08:13:28.745Z,1014.12
2018-08-21T08:14:09.421Z,1014.12
2018-08-21T08:14:50.080Z,1014.15
2018-08-21T08:15:30.944Z,1014.13
2018-08-21T08:16:11.743Z,1014.14
2018-08-21T08:16:52.631Z,1014.13
2018-08-21T08:17:33.340Z,1014.13